Frankfurt-Hahn Airport EDFH

Flugplatz Daten

Name: Frankfurt-Hahn Airport

Ident: EDFH

Lat: 49,94869995

Long: 7,26388979

Platzhöhe: 1649 ft

IataCode: HHN

City: Hahn

Metar

2021/10/20 12:20
EDFH 201220Z 22015G26KT 9999 BKN016 15/12 Q1009

Taf

2021/10/20 12:27
TAF EDFH 201100Z 2012/2112 23015G25KT 9999 BKN025
TEMPO 2014/2018 25020G30KT SHRA BKN015CB PROB30
TEMPO 2018/2024 BKN010
BECMG 2100/2102 24020G40KT PROB40
TEMPO 2102/2112 26030G50KT SHRA BKN012CB
Gewünschte Webcam nicht vorhanden? Dann fügen Sie eine hinzu. Sie wird dann so schnell wie möglich freigeschaltet
Url: Title: